Time;durP1;ratioP1;P1;durP2;ratioP2;P2;SDS_P1;SDS_P2;PMS_P1;PMS_P2;Temp;Humidity;BMP_temperature;BMP_pressure;BME280_temperature;BME280_humidity;BME280_pressure;Samples;Min_cycle;Max_cycle;Signal;HPM_P1;HPM_P2
2023/01/03 00:01:51;;;;;;;1.52;1.10;;;;;;;;;;5028558;28;20037;-75
2023/01/03 00:04:17;;;;;;;1.20;0.90;;;;;;;;;;5027720;28;20040;-75
2023/01/03 00:06:45;;;;;;;1.00;0.90;;;;;;;;;;5025041;28;20068;-75
2023/01/03 00:09:13;;;;;;;0.82;0.70;;;;;;;;;;5029165;28;20033;-74
2023/01/03 00:14:26;;;;;;;2.10;0.85;;;;;;;;;;5028926;28;20225;-75
2023/01/03 00:16:56;;;;;;;1.67;1.20;;;;;;;;;;5027668;28;20144;-75
2023/01/03 00:19:23;;;;;;;1.40;0.90;;;;;;;;;;5028504;28;20037;-75
2023/01/03 00:21:49;;;;;;;1.00;0.90;;;;;;;;;;5026904;28;20064;-74
2023/01/03 00:24:16;;;;;;;1.55;0.82;;;;;;;;;;5029229;28;20429;-74
2023/01/03 00:26:42;;;;;;;1.20;1.10;;;;;;;;;;5029129;28;20033;-74
2023/01/03 00:29:09;;;;;;;1.88;1.20;;;;;;;;;;5027661;28;20025;-74
2023/01/03 00:31:35;;;;;;;0.88;0.82;;;;;;;;;;5015928;28;20460;-74
2023/01/03 00:34:01;;;;;;;0.85;0.77;;;;;;;;;;5027580;28;20050;-74
2023/01/03 00:36:30;;;;;;;1.55;1.08;;;;;;;;;;5028541;28;20048;-74
2023/01/03 00:38:58;;;;;;;1.45;0.90;;;;;;;;;;5027694;28;20400;-74
2023/01/03 00:41:24;;;;;;;1.10;0.90;;;;;;;;;;5025212;28;20369;-74
2023/01/03 00:43:50;;;;;;;2.58;1.17;;;;;;;;;;5028888;28;20154;-74
2023/01/03 00:46:18;;;;;;;1.73;1.00;;;;;;;;;;5027754;28;20479;-74
2023/01/03 00:48:44;;;;;;;1.88;0.98;;;;;;;;;;5024808;28;20121;-75
2023/01/03 00:51:17;;;;;;;1.00;0.90;;;;;;;;;;5027210;28;20030;-74
2023/01/03 00:53:44;;;;;;;0.80;0.80;;;;;;;;;;5025663;28;20025;-75
2023/01/03 00:56:23;;;;;;;1.55;1.10;;;;;;;;;;5028498;28;20384;-74
2023/01/03 00:58:49;;;;;;;1.55;0.70;;;;;;;;;;5028367;28;20052;-74
2023/01/03 01:01:17;;;;;;;1.42;1.02;;;;;;;;;;5027544;28;20116;-74
2023/01/03 01:03:45;;;;;;;0.98;0.90;;;;;;;;;;5026881;28;20032;-76
2023/01/03 01:06:16;;;;;;;1.30;1.00;;;;;;;;;;5024151;28;20026;-74
2023/01/03 01:08:43;;;;;;;1.10;1.00;;;;;;;;;;5026727;28;20492;-74
2023/01/03 01:11:09;;;;;;;2.47;1.02;;;;;;;;;;5026044;28;20029;-75
2023/01/03 01:13:35;;;;;;;0.95;0.90;;;;;;;;;;5024974;28;20052;-74
2023/01/03 01:16:08;;;;;;;1.52;0.80;;;;;;;;;;5028253;28;20021;-75
2023/01/03 01:18:34;;;;;;;2.33;0.90;;;;;;;;;;5026939;28;20116;-75
2023/01/03 01:21:03;;;;;;;0.90;0.90;;;;;;;;;;5026657;28;20028;-74
2023/01/03 01:23:29;;;;;;;1.00;0.95;;;;;;;;;;5024378;28;20052;-75
2023/01/03 01:25:59;;;;;;;1.25;0.98;;;;;;;;;;5028008;28;20025;-75
2023/01/03 01:28:25;;;;;;;1.67;0.88;;;;;;;;;;5027547;28;20116;-75
2023/01/03 01:30:50;;;;;;;0.80;0.70;;;;;;;;;;5020300;28;20051;-75
2023/01/03 01:33:16;;;;;;;1.15;1.02;;;;;;;;;;5026456;28;20032;-75
2023/01/03 01:35:45;;;;;;;1.25;1.08;;;;;;;;;;5026605;28;20037;-75
2023/01/03 01:38:11;;;;;;;2.33;1.05;;;;;;;;;;5025854;28;20509;-75
2023/01/03 01:40:37;;;;;;;1.75;1.13;;;;;;;;;;5027286;28;20032;-75
2023/01/03 01:46:09;;;;;;;1.42;0.85;;;;;;;;;;5024990;28;20528;-75
2023/01/03 01:48:35;;;;;;;1.08;0.85;;;;;;;;;;5021537;28;20047;-75
2023/01/03 01:51:02;;;;;;;0.98;0.80;;;;;;;;;;5042067;28;20468;-76
2023/01/03 01:53:29;;;;;;;0.80;0.70;;;;;;;;;;5026379;28;20025;-75
2023/01/03 01:55:56;;;;;;;1.27;1.02;;;;;;;;;;5024300;28;20064;-75
2023/01/03 01:58:25;;;;;;;1.23;1.10;;;;;;;;;;5027149;28;20040;-75
2023/01/03 02:00:51;;;;;;;0.80;0.80;;;;;;;;;;5026448;28;20025;-75
2023/01/03 02:03:17;;;;;;;0.95;0.85;;;;;;;;;;5025354;28;20443;-75
2023/01/03 02:05:48;;;;;;;1.30;0.90;;;;;;;;;;5025562;28;20041;-75
2023/01/03 02:08:19;;;;;;;0.73;0.73;;;;;;;;;;5025674;28;20040;-75
2023/01/03 02:10:45;;;;;;;;;;;;;;;;;;5025503;28;20080;-75
2023/01/03 02:13:17;;;;;;;1.50;0.80;;;;;;;;;;5027562;28;20368;-75
2023/01/03 02:16:06;;;;;;;0.75;0.75;;;;;;;;;;5024597;28;20049;-75
2023/01/03 02:18:40;;;;;;;0.82;0.82;;;;;;;;;;5027484;28;20097;-75
2023/01/03 02:21:32;;;;;;;1.23;1.13;;;;;;;;;;5025063;28;20031;-75
2023/01/03 02:24:20;;;;;;;1.02;0.93;;;;;;;;;;5021504;28;20613;-76
2023/01/03 02:26:53;;;;;;;2.13;0.80;;;;;;;;;;5027650;28;20029;-75
2023/01/03 02:29:22;;;;;;;0.85;0.60;;;;;;;;;;5024413;28;20439;-75
2023/01/03 02:31:52;;;;;;;2.15;1.00;;;;;;;;;;5023012;28;20148;-75
2023/01/03 02:34:23;;;;;;;2.28;1.30;;;;;;;;;;5026610;28;20150;-75
2023/01/03 02:36:58;;;;;;;1.77;0.85;;;;;;;;;;5026147;28;20253;-75
2023/01/03 02:39:32;;;;;;;3.28;0.98;;;;;;;;;;5022929;28;20033;-75
2023/01/03 02:44:49;;;;;;;1.70;0.82;;;;;;;;;;5024478;28;20519;-75
2023/01/03 02:47:15;;;;;;;1.50;0.90;;;;;;;;;;5027400;28;20036;-75
2023/01/03 02:49:46;;;;;;;0.82;0.80;;;;;;;;;;5025461;28;20760;-76
2023/01/03 02:52:17;;;;;;;1.13;1.07;;;;;;;;;;5025390;28;20172;-75
2023/01/03 02:54:46;;;;;;;1.45;0.90;;;;;;;;;;5025628;28;20357;-75
2023/01/03 02:57:18;;;;;;;0.75;0.75;;;;;;;;;;5026100;28;20312;-75
2023/01/03 02:59:46;;;;;;;0.90;0.90;;;;;;;;;;5025172;28;20079;-75
2023/01/03 03:02:22;;;;;;;0.90;0.88;;;;;;;;;;5024834;28;20042;-74
2023/01/03 03:04:50;;;;;;;2.40;0.70;;;;;;;;;;5026197;28;20068;-75
2023/01/03 03:07:23;;;;;;;1.00;0.80;;;;;;;;;;5024549;28;20137;-74
2023/01/03 03:15:25;;;;;;;0.75;0.70;;;;;;;;;;5028873;28;20049;-74
2023/01/03 03:17:53;;;;;;;0.82;0.82;;;;;;;;;;5029947;28;20041;-75
2023/01/03 03:25:55;;;;;;;1.63;0.88;;;;;;;;;;5027924;28;20048;-75
2023/01/03 03:28:36;;;;;;;0.60;0.60;;;;;;;;;;5030028;28;20030;-75
2023/01/03 03:31:23;;;;;;;0.68;0.68;;;;;;;;;;5024983;28;20532;-75
2023/01/03 03:33:51;;;;;;;0.60;0.60;;;;;;;;;;5027717;28;20059;-75
2023/01/03 03:36:22;;;;;;;0.98;0.75;;;;;;;;;;5029179;28;20522;-75
2023/01/03 03:38:48;;;;;;;1.20;0.75;;;;;;;;;;5027718;28;20036;-75
2023/01/03 03:47:28;;;;;;;0.65;0.65;;;;;;;;;;5030121;28;20200;-76
2023/01/03 03:49:56;;;;;;;1.05;0.88;;;;;;;;;;5028155;28;20498;-76
2023/01/03 03:52:25;;;;;;;0.95;0.85;;;;;;;;;;5027733;28;20026;-74
2023/01/03 03:55:02;;;;;;;1.00;0.88;;;;;;;;;;5028172;28;20469;-76
2023/01/03 03:57:30;;;;;;;0.82;0.80;;;;;;;;;;5027824;28;20047;-76
2023/01/03 03:59:59;;;;;;;2.55;1.15;;;;;;;;;;5028195;28;20040;-75
2023/01/03 04:02:27;;;;;;;0.70;0.70;;;;;;;;;;5028188;28;20029;-75
2023/01/03 04:04:55;;;;;;;1.08;0.60;;;;;;;;;;5028068;28;20387;-75
2023/01/03 04:07:21;;;;;;;1.00;0.88;;;;;;;;;;5024140;28;20037;-75
2023/01/03 04:09:47;;;;;;;0.75;0.75;;;;;;;;;;5026913;28;20029;-76
2023/01/03 04:12:13;;;;;;;0.70;0.70;;;;;;;;;;5028260;28;20029;-75
2023/01/03 04:14:39;;;;;;;0.98;0.88;;;;;;;;;;5025967;28;20087;-76
2023/01/03 04:17:05;;;;;;;0.60;0.60;;;;;;;;;;5029088;28;20030;-75
2023/01/03 04:19:31;;;;;;;0.73;0.60;;;;;;;;;;5030392;28;20388;-75
2023/01/03 04:21:57;;;;;;;0.80;0.80;;;;;;;;;;5026655;28;20431;-75
2023/01/03 04:24:23;;;;;;;2.75;0.75;;;;;;;;;;5017033;28;20060;-74
2023/01/03 04:26:56;;;;;;;0.70;0.70;;;;;;;;;;5022479;28;20578;-78
2023/01/03 04:29:22;;;;;;;0.60;0.60;;;;;;;;;;5024470;28;20026;-84
2023/01/03 04:31:48;;;;;;;2.00;0.80;;;;;;;;;;5023538;28;20120;-77
2023/01/03 04:34:14;;;;;;;3.17;0.82;;;;;;;;;;5027726;28;20239;-76
2023/01/03 04:36:52;;;;;;;0.80;0.60;;;;;;;;;;5025497;28;20518;-75
2023/01/03 04:39:18;;;;;;;1.20;0.70;;;;;;;;;;5023883;28;20056;-78
2023/01/03 04:41:43;;;;;;;1.17;0.70;;;;;;;;;;5023093;28;20490;-75
2023/01/03 04:44:10;;;;;;;0.90;0.60;;;;;;;;;;5022637;28;20030;-75
2023/01/03 04:46:37;;;;;;;0.77;0.70;;;;;;;;;;5028644;28;20025;-75
2023/01/03 04:49:03;;;;;;;2.30;0.90;;;;;;;;;;5033393;28;20596;-74
2023/01/03 04:51:30;;;;;;;0.77;0.77;;;;;;;;;;5028332;28;20041;-75
2023/01/03 04:53:56;;;;;;;0.70;0.70;;;;;;;;;;5027920;28;20058;-75
2023/01/03 04:56:29;;;;;;;0.95;0.73;;;;;;;;;;5027589;28;20680;-76
2023/01/03 04:59:00;;;;;;;0.93;0.80;;;;;;;;;;5025315;28;20508;-76
2023/01/03 05:01:26;;;;;;;0.73;0.65;;;;;;;;;;5026040;28;20033;-76
2023/01/03 05:03:56;;;;;;;0.60;0.60;;;;;;;;;;5029822;28;20168;-76
2023/01/03 05:06:21;;;;;;;0.75;0.63;;;;;;;;;;5029919;28;20021;-77
2023/01/03 05:08:48;;;;;;;0.90;0.65;;;;;;;;;;5029159;28;20699;-76
2023/01/03 05:11:14;;;;;;;1.05;0.95;;;;;;;;;;5028596;28;20571;-76
2023/01/03 05:13:40;;;;;;;2.25;0.70;;;;;;;;;;5026103;28;20029;-77
2023/01/03 05:16:10;;;;;;;0.73;0.63;;;;;;;;;;5028511;28;20079;-76
2023/01/03 05:18:36;;;;;;;1.55;0.80;;;;;;;;;;5027644;28;20488;-76
2023/01/03 05:26:42;;;;;;;0.70;0.70;;;;;;;;;;5027616;28;20158;-76
2023/01/03 05:29:09;;;;;;;0.77;0.68;;;;;;;;;;5027905;28;20025;-76
2023/01/03 05:31:37;;;;;;;0.77;0.70;;;;;;;;;;5026703;28;20112;-77
2023/01/03 05:34:03;;;;;;;1.65;0.70;;;;;;;;;;5025865;28;20038;-76
2023/01/03 05:36:29;;;;;;;1.95;0.82;;;;;;;;;;5028458;28;20025;-75
2023/01/03 05:38:56;;;;;;;0.52;0.52;;;;;;;;;;5026469;28;20021;-75
2023/01/03 05:44:06;;;;;;;1.08;0.70;;;;;;;;;;5029318;28;20503;-75
2023/01/03 05:46:35;;;;;;;2.03;0.70;;;;;;;;;;5024915;28;20040;-76
2023/01/03 05:49:01;;;;;;;2.88;0.73;;;;;;;;;;5026860;28;20120;-75
2023/01/03 05:51:30;;;;;;;0.60;0.60;;;;;;;;;;5028622;28;20254;-75
2023/01/03 05:53:56;;;;;;;3.20;1.05;;;;;;;;;;5028810;28;20460;-75
2023/01/03 05:56:22;;;;;;;2.40;0.60;;;;;;;;;;5029170;28;20017;-76
2023/01/03 05:58:48;;;;;;;0.73;0.60;;;;;;;;;;5022986;28;20099;-76
2023/01/03 06:01:14;;;;;;;1.73;0.57;;;;;;;;;;5026244;28;20033;-76
2023/01/03 06:03:44;;;;;;;1.10;0.88;;;;;;;;;;5023190;28;20030;-76
2023/01/03 06:06:10;;;;;;;0.95;0.80;;;;;;;;;;5020024;28;20040;-74
2023/01/03 06:08:55;;;;;;;;;;;;;;;;;;;;;
2023/01/03 06:11:22;;;;;;;0.50;0.50;;;;;;;;;;5013145;28;20034;-74
2023/01/03 06:13:50;;;;;;;0.95;0.70;;;;;;;;;;5026690;28;20044;-75
2023/01/03 06:19:03;;;;;;;1.40;0.98;;;;;;;;;;5027768;28;20048;-74
2023/01/03 06:21:29;;;;;;;0.82;0.70;;;;;;;;;;5028125;28;20039;-74
2023/01/03 06:23:55;;;;;;;0.85;0.70;;;;;;;;;;5028394;28;20029;-75
2023/01/03 06:26:22;;;;;;;0.98;0.70;;;;;;;;;;5026953;28;20025;-74
2023/01/03 06:28:48;;;;;;;0.57;0.50;;;;;;;;;;5027843;28;20032;-75
2023/01/03 06:31:14;;;;;;;0.77;0.60;;;;;;;;;;5028303;28;20029;-74
2023/01/03 06:33:41;;;;;;;2.13;0.80;;;;;;;;;;5027836;28;20037;-75
2023/01/03 06:36:08;;;;;;;1.13;0.70;;;;;;;;;;5025376;28;20018;-75
2023/01/03 06:38:34;;;;;;;0.55;0.55;;;;;;;;;;5019651;28;20032;-74
2023/01/03 06:41:00;;;;;;;0.90;0.63;;;;;;;;;;5028044;28;20048;-75
2023/01/03 06:43:26;;;;;;;0.85;0.75;;;;;;;;;;5026586;28;20033;-75
2023/01/03 06:54:08;;;;;;;0.70;0.70;;;;;;;;;;5031218;28;20048;-76
2023/01/03 06:56:34;;;;;;;3.05;1.02;;;;;;;;;;5032107;28;20032;-76
2023/01/03 06:59:00;;;;;;;1.40;0.60;;;;;;;;;;5030419;28;20045;-75
2023/01/03 07:01:27;;;;;;;1.00;0.80;;;;;;;;;;5031640;28;20103;-75
2023/01/03 07:03:53;;;;;;;1.63;0.90;;;;;;;;;;5031787;28;20396;-74
2023/01/03 07:06:19;;;;;;;0.70;0.70;;;;;;;;;;5031416;28;20022;-75
2023/01/03 07:08:45;;;;;;;0.57;0.57;;;;;;;;;;5031429;28;20034;-75
2023/01/03 07:11:10;;;;;;;0.77;0.77;;;;;;;;;;5031448;28;20380;-75
2023/01/03 07:16:21;;;;;;;0.70;0.70;;;;;;;;;;5031381;28;20503;-75
2023/01/03 07:18:48;;;;;;;3.35;0.70;;;;;;;;;;5031495;28;20128;-75
2023/01/03 07:21:14;;;;;;;0.68;0.68;;;;;;;;;;5031824;28;20048;-74
2023/01/03 07:23:41;;;;;;;1.08;0.75;;;;;;;;;;5031292;28;20037;-75
2023/01/03 07:26:06;;;;;;;0.50;0.50;;;;;;;;;;5028968;28;20026;-75
2023/01/03 07:28:32;;;;;;;1.20;0.90;;;;;;;;;;5029337;28;20515;-75
2023/01/03 07:31:02;;;;;;;0.68;0.57;;;;;;;;;;5026876;28;20033;-75
2023/01/03 07:33:28;;;;;;;4.55;0.90;;;;;;;;;;5033977;28;20037;-75
2023/01/03 07:36:01;;;;;;;0.73;0.63;;;;;;;;;;5031319;28;20156;-75
2023/01/03 07:38:28;;;;;;;0.55;0.50;;;;;;;;;;5031312;28;20037;-76
2023/01/03 07:40:57;;;;;;;0.82;0.80;;;;;;;;;;5028477;28;20071;-75
2023/01/03 07:43:35;;;;;;;1.45;0.90;;;;;;;;;;5041882;28;20026;-75
2023/01/03 07:46:26;;;;;;;1.40;0.95;;;;;;;;;;5031708;28;20048;-74
2023/01/03 07:49:01;;;;;;;0.80;0.70;;;;;;;;;;5033001;28;20037;-75
2023/01/03 07:51:27;;;;;;;2.10;0.75;;;;;;;;;;5030887;28;20487;-75
2023/01/03 07:53:53;;;;;;;1.83;0.82;;;;;;;;;;5038601;28;20073;-74
2023/01/03 07:56:20;;;;;;;0.80;0.80;;;;;;;;;;5030673;28;20021;-75
2023/01/03 07:58:47;;;;;;;1.75;1.30;;;;;;;;;;5028957;28;20043;-75
2023/01/03 08:01:17;;;;;;;1.38;1.27;;;;;;;;;;5028423;28;20627;-75
2023/01/03 08:03:43;;;;;;;1.50;1.02;;;;;;;;;;5032860;28;20024;-75
2023/01/03 08:06:10;;;;;;;0.80;0.80;;;;;;;;;;5027555;28;20029;-75
2023/01/03 08:08:36;;;;;;;0.82;0.82;;;;;;;;;;5035244;28;20516;-75
2023/01/03 08:13:47;;;;;;;1.08;0.90;;;;;;;;;;5029525;28;20032;-75
2023/01/03 08:16:15;;;;;;;2.88;0.80;;;;;;;;;;5030657;28;20029;-75
2023/01/03 08:18:41;;;;;;;1.38;0.82;;;;;;;;;;5029406;28;20120;-75
2023/01/03 08:21:08;;;;;;;0.98;0.90;;;;;;;;;;5040215;28;20029;-75
2023/01/03 08:23:35;;;;;;;2.15;0.90;;;;;;;;;;5029661;28;20108;-75
2023/01/03 08:26:06;;;;;;;2.13;1.17;;;;;;;;;;5040076;28;20060;-75
2023/01/03 08:28:32;;;;;;;3.60;1.17;;;;;;;;;;5039500;28;20026;-75
2023/01/03 08:31:00;;;;;;;1.00;0.90;;;;;;;;;;5037631;28;20033;-74
2023/01/03 08:33:26;;;;;;;4.55;1.58;;;;;;;;;;5035158;28;20163;-75
2023/01/03 08:35:55;;;;;;;1.58;0.80;;;;;;;;;;5036154;28;20053;-74
2023/01/03 08:38:24;;;;;;;0.80;0.70;;;;;;;;;;5033123;28;20024;-81
2023/01/03 08:40:50;;;;;;;1.02;0.80;;;;;;;;;;5023380;28;20034;-76
2023/01/03 08:43:17;;;;;;;2.25;0.90;;;;;;;;;;5038840;28;20071;-75
2023/01/03 08:45:43;;;;;;;1.23;1.00;;;;;;;;;;5043161;28;20075;-76
2023/01/03 08:48:10;;;;;;;1.30;0.73;;;;;;;;;;5039131;28;20025;-76
2023/01/03 08:50:36;;;;;;;1.23;0.77;;;;;;;;;;5034065;28;20029;-77
2023/01/03 08:53:04;;;;;;;1.20;1.05;;;;;;;;;;5032724;28;20110;-77
2023/01/03 08:55:29;;;;;;;2.10;0.85;;;;;;;;;;5039422;28;20503;-76
2023/01/03 08:57:58;;;;;;;1.25;0.90;;;;;;;;;;5032222;28;20048;-77
2023/01/03 09:00:33;;;;;;;3.10;0.90;;;;;;;;;;5039756;28;20053;-77
2023/01/03 09:02:59;;;;;;;2.65;1.13;;;;;;;;;;5035509;28;20025;-76
2023/01/03 09:05:25;;;;;;;0.90;0.65;;;;;;;;;;5030165;28;20086;-76
2023/01/03 09:07:52;;;;;;;1.48;1.00;;;;;;;;;;5032516;28;20101;-78
2023/01/03 09:10:25;;;;;;;0.85;0.82;;;;;;;;;;5027369;28;20335;-79
2023/01/03 09:12:51;;;;;;;3.22;1.00;;;;;;;;;;5026807;28;20017;-72
2023/01/03 09:15:17;;;;;;;2.15;0.85;;;;;;;;;;5037493;28;20249;-73
2023/01/03 09:17:48;;;;;;;4.47;0.82;;;;;;;;;;5037434;28;20561;-73
2023/01/03 09:20:15;;;;;;;1.90;0.90;;;;;;;;;;5028016;28;20026;-73
2023/01/03 09:22:41;;;;;;;1.15;0.95;;;;;;;;;;5029056;28;20033;-73
2023/01/03 09:25:07;;;;;;;3.53;0.90;;;;;;;;;;5033852;28;20604;-72
2023/01/03 09:27:33;;;;;;;2.58;0.90;;;;;;;;;;5029547;28;20033;-72
2023/01/03 09:29:59;;;;;;;0.98;0.70;;;;;;;;;;5028430;28;20022;-73
2023/01/03 09:32:25;;;;;;;1.70;0.82;;;;;;;;;;5027877;28;20075;-73
2023/01/03 09:34:51;;;;;;;1.00;0.88;;;;;;;;;;5039217;28;20049;-73
2023/01/03 09:37:17;;;;;;;1.30;1.00;;;;;;;;;;5029157;28;20084;-72
2023/01/03 09:39:43;;;;;;;1.20;0.77;;;;;;;;;;5027598;28;20029;-72
2023/01/03 09:44:59;;;;;;;1.50;0.70;;;;;;;;;;5030851;28;20033;-72
2023/01/03 09:47:26;;;;;;;5.55;0.77;;;;;;;;;;5024852;28;20018;-73
2023/01/03 09:49:53;;;;;;;1.42;0.77;;;;;;;;;;5028333;28;20431;-73
2023/01/03 10:04:04;;;;;;;1.98;0.88;;;;;;;;;;5026114;28;20044;-72
2023/01/03 10:06:56;;;;;;;1.05;0.80;;;;;;;;;;5027823;28;20101;-72
2023/01/03 10:09:44;;;;;;;1.10;0.95;;;;;;;;;;5028871;28;20029;-73
2023/01/03 10:12:18;;;;;;;0.55;0.55;;;;;;;;;;5027239;28;20041;-72
2023/01/03 10:14:44;;;;;;;1.48;0.70;;;;;;;;;;5026793;28;20361;-73
2023/01/03 10:17:16;;;;;;;2.08;0.82;;;;;;;;;;5028224;28;20028;-73
2023/01/03 10:20:00;;;;;;;1.77;0.80;;;;;;;;;;5025815;28;20037;-74
2023/01/03 10:22:28;;;;;;;0.70;0.70;;;;;;;;;;5027251;28;20059;-73
2023/01/03 10:25:05;;;;;;;0.70;0.70;;;;;;;;;;5026090;28;20033;-73
2023/01/03 10:27:32;;;;;;;2.70;0.80;;;;;;;;;;5030325;28;20087;-73
2023/01/03 10:30:03;;;;;;;1.02;0.70;;;;;;;;;;5025505;28;20041;-73
2023/01/03 10:32:41;;;;;;;1.23;0.80;;;;;;;;;;5028178;28;20025;-74
2023/01/03 10:35:15;;;;;;;0.60;0.60;;;;;;;;;;5025310;28;20430;-73
2023/01/03 10:37:41;;;;;;;0.70;0.70;;;;;;;;;;5026016;28;20468;-72
2023/01/03 10:40:07;;;;;;;0.77;0.60;;;;;;;;;;5033556;28;20389;-73
2023/01/03 10:42:34;;;;;;;1.27;0.82;;;;;;;;;;5029561;28;20063;-73
2023/01/03 10:45:01;;;;;;;2.10;0.75;;;;;;;;;;5030282;28;20563;-72
2023/01/03 10:47:27;;;;;;;0.73;0.73;;;;;;;;;;5033514;28;20040;-72
2023/01/03 10:50:00;;;;;;;0.90;0.70;;;;;;;;;;5030147;28;20029;-74
2023/01/03 10:52:30;;;;;;;0.63;0.57;;;;;;;;;;5030542;28;20120;-72
2023/01/03 10:55:01;;;;;;;1.95;0.65;;;;;;;;;;5034513;28;20025;-72
2023/01/03 10:57:38;;;;;;;0.70;0.70;;;;;;;;;;5021375;28;20025;-72
2023/01/03 11:00:23;;;;;;;1.52;0.70;;;;;;;;;;5027647;28;20544;-73
2023/01/03 11:02:50;;;;;;;0.77;0.55;;;;;;;;;;5030299;28;20032;-73
2023/01/03 11:05:17;;;;;;;1.13;0.70;;;;;;;;;;5028386;28;20109;-73
2023/01/03 11:07:44;;;;;;;1.20;0.80;;;;;;;;;;5027918;28;20037;-73
2023/01/03 11:10:17;;;;;;;0.70;0.70;;;;;;;;;;5031294;28;20390;-73
2023/01/03 11:12:43;;;;;;;0.73;0.73;;;;;;;;;;5026471;28;20025;-74
2023/01/03 11:15:19;;;;;;;0.73;0.60;;;;;;;;;;5027191;28;20386;-73
2023/01/03 11:18:03;;;;;;;0.57;0.57;;;;;;;;;;5027423;28;20021;-73
2023/01/03 11:20:35;;;;;;;3.25;0.80;;;;;;;;;;5033082;28;20037;-73
2023/01/03 11:23:03;;;;;;;0.57;0.57;;;;;;;;;;5034372;28;20033;-72
2023/01/03 11:25:37;;;;;;;1.23;0.80;;;;;;;;;;5027635;28;20037;-73
2023/01/03 11:28:03;;;;;;;0.82;0.70;;;;;;;;;;5027360;28;20029;-73
2023/01/03 11:30:33;;;;;;;0.60;0.57;;;;;;;;;;5031742;28;20394;-73
2023/01/03 11:33:05;;;;;;;1.70;0.93;;;;;;;;;;5029575;28;20047;-73
2023/01/03 11:35:36;;;;;;;1.02;0.80;;;;;;;;;;5029044;28;20060;-73
2023/01/03 11:38:23;;;;;;;0.80;0.80;;;;;;;;;;5026708;28;20025;-73
2023/01/03 11:41:07;;;;;;;0.68;0.50;;;;;;;;;;5023500;28;20065;-73
2023/01/03 11:43:52;;;;;;;1.23;0.73;;;;;;;;;;5029760;28;20035;-73
2023/01/03 11:46:30;;;;;;;1.05;0.77;;;;;;;;;;5035909;28;20037;-73
2023/01/03 11:49:18;;;;;;;0.75;0.68;;;;;;;;;;5030755;28;20045;-73
2023/01/03 11:52:02;;;;;;;0.95;0.80;;;;;;;;;;5028976;28;20044;-73
2023/01/03 11:54:39;;;;;;;0.60;0.60;;;;;;;;;;5028379;28;20075;-73
2023/01/03 11:57:25;;;;;;;2.08;0.80;;;;;;;;;;5037111;28;21677;-73
2023/01/03 12:00:10;;;;;;;1.52;0.70;;;;;;;;;;5036286;28;20029;-74
2023/01/03 12:02:55;;;;;;;0.73;0.63;;;;;;;;;;5029580;28;20030;-73
2023/01/03 12:05:35;;;;;;;1.02;0.60;;;;;;;;;;5030544;28;20464;-73
2023/01/03 12:08:14;;;;;;;1.02;0.77;;;;;;;;;;5030864;28;20159;-74
2023/01/03 12:10:47;;;;;;;0.73;0.50;;;;;;;;;;5029712;28;20064;-73
2023/01/03 12:13:19;;;;;;;0.85;0.63;;;;;;;;;;5029243;28;20022;-73
2023/01/03 12:15:49;;;;;;;1.17;0.60;;;;;;;;;;5028891;28;20207;-73
2023/01/03 12:18:28;;;;;;;0.80;0.70;;;;;;;;;;5028642;28;20549;-73
2023/01/03 12:20:56;;;;;;;0.65;0.50;;;;;;;;;;5022594;28;20029;-73
2023/01/03 12:23:22;;;;;;;0.77;0.70;;;;;;;;;;5030517;28;20480;-72
2023/01/03 12:25:51;;;;;;;0.70;0.70;;;;;;;;;;5029571;28;20040;-73
2023/01/03 12:28:21;;;;;;;1.00;0.60;;;;;;;;;;5029120;28;20035;-73
2023/01/03 12:31:05;;;;;;;0.93;0.82;;;;;;;;;;5033528;28;20029;-73
2023/01/03 12:33:42;;;;;;;0.60;0.60;;;;;;;;;;5028993;28;20035;-73
2023/01/03 12:36:25;;;;;;;1.13;0.65;;;;;;;;;;5028420;28;20480;-73
2023/01/03 12:39:04;;;;;;;1.63;0.82;;;;;;;;;;5030125;28;20037;-72
2023/01/03 12:41:46;;;;;;;0.57;0.57;;;;;;;;;;5040491;28;20480;-72
2023/01/03 12:44:21;;;;;;;2.45;0.88;;;;;;;;;;5025660;28;21134;-73
2023/01/03 12:46:49;;;;;;;2.60;1.02;;;;;;;;;;5029934;28;20029;-73
2023/01/03 12:49:24;;;;;;;2.63;0.90;;;;;;;;;;5031502;28;20035;-73
2023/01/03 12:51:50;;;;;;;2.28;0.80;;;;;;;;;;5029792;28;20029;-72
2023/01/03 12:54:19;;;;;;;0.52;0.40;;;;;;;;;;5042221;28;20040;-73
2023/01/03 12:57:13;;;;;;;0.50;0.50;;;;;;;;;;5027137;28;20519;-72
2023/01/03 12:59:57;;;;;;;0.70;0.70;;;;;;;;;;5032780;28;20095;-73
2023/01/03 13:02:42;;;;;;;1.58;0.90;;;;;;;;;;5026739;28;20037;-73
2023/01/03 13:05:28;;;;;;;0.47;0.47;;;;;;;;;;5022275;28;20086;-73
2023/01/03 13:08:06;;;;;;;0.52;0.52;;;;;;;;;;5014617;28;20041;-73
2023/01/03 13:10:34;;;;;;;0.93;0.60;;;;;;;;;;5023563;28;20480;-73
2023/01/03 13:13:01;;;;;;;1.05;0.73;;;;;;;;;;5029864;28;20021;-73
2023/01/03 13:15:27;;;;;;;0.75;0.70;;;;;;;;;;5027741;28;20078;-73
2023/01/03 13:17:53;;;;;;;1.10;0.77;;;;;;;;;;5028616;28;20639;-73
2023/01/03 13:20:31;;;;;;;0.68;0.68;;;;;;;;;;5027327;28;20040;-73
2023/01/03 13:22:58;;;;;;;0.60;0.60;;;;;;;;;;5037491;28;20108;-74
2023/01/03 13:25:38;;;;;;;0.47;0.47;;;;;;;;;;5028932;28;20037;-74
2023/01/03 13:28:05;;;;;;;0.50;0.50;;;;;;;;;;5026999;28;20017;-73
2023/01/03 13:30:37;;;;;;;1.08;0.75;;;;;;;;;;5026938;28;20523;-73
2023/01/03 13:33:14;;;;;;;0.73;0.50;;;;;;;;;;5025186;28;20389;-73
2023/01/03 13:35:43;;;;;;;0.85;0.73;;;;;;;;;;5028788;28;20068;-74
2023/01/03 13:38:18;;;;;;;0.50;0.50;;;;;;;;;;5028520;28;20036;-73
2023/01/03 13:40:45;;;;;;;0.88;0.70;;;;;;;;;;5026670;28;20083;-73
2023/01/03 13:43:14;;;;;;;0.75;0.52;;;;;;;;;;5029941;28;20048;-73
2023/01/03 13:45:43;;;;;;;1.40;0.85;;;;;;;;;;5028699;28;20032;-73
2023/01/03 13:48:12;;;;;;;1.70;0.80;;;;;;;;;;5028498;28;20592;-73
2023/01/03 13:50:38;;;;;;;0.40;0.40;;;;;;;;;;5029115;28;20025;-73
2023/01/03 13:53:05;;;;;;;0.50;0.50;;;;;;;;;;5025660;28;20106;-73
2023/01/03 13:55:46;;;;;;;0.70;0.70;;;;;;;;;;5028370;28;20017;-74
2023/01/03 13:58:27;;;;;;;0.60;0.60;;;;;;;;;;5026763;28;20031;-73
2023/01/03 14:00:54;;;;;;;0.75;0.50;;;;;;;;;;5028296;28;20507;-74
2023/01/03 14:03:34;;;;;;;2.40;0.70;;;;;;;;;;5027678;28;20628;-73
2023/01/03 14:06:07;;;;;;;0.40;0.40;;;;;;;;;;5027722;28;20043;-74
2023/01/03 14:08:36;;;;;;;0.93;0.60;;;;;;;;;;5026064;28;20395;-73
2023/01/03 14:11:11;;;;;;;0.70;0.60;;;;;;;;;;5028206;28;20079;-73
2023/01/03 14:14:00;;;;;;;0.95;0.60;;;;;;;;;;5026860;28;20022;-74
2023/01/03 14:16:37;;;;;;;1.38;0.70;;;;;;;;;;5026189;28;20013;-73
2023/01/03 14:19:06;;;;;;;0.80;0.70;;;;;;;;;;5026225;28;20055;-73
2023/01/03 14:21:41;;;;;;;1.48;0.60;;;;;;;;;;5024634;28;20492;-74
2023/01/03 14:24:13;;;;;;;1.30;0.50;;;;;;;;;;5026321;28;20025;-73
2023/01/03 14:26:39;;;;;;;0.93;0.70;;;;;;;;;;5030393;28;20064;-74
2023/01/03 14:29:07;;;;;;;0.55;0.50;;;;;;;;;;5027223;28;20061;-74
2023/01/03 14:31:34;;;;;;;0.38;0.38;;;;;;;;;;5027659;28;20022;-74
2023/01/03 14:34:00;;;;;;;0.68;0.60;;;;;;;;;;5025395;28;20053;-73
2023/01/03 14:36:27;;;;;;;0.60;0.60;;;;;;;;;;5026674;28;20033;-74
2023/01/03 14:38:54;;;;;;;0.40;0.40;;;;;;;;;;5026107;28;20037;-73
2023/01/03 14:41:33;;;;;;;0.98;0.70;;;;;;;;;;5020060;28;20037;-73
2023/01/03 14:44:05;;;;;;;0.57;0.52;;;;;;;;;;5027451;28;20120;-73
2023/01/03 14:46:32;;;;;;;0.80;0.80;;;;;;;;;;5025854;28;20041;-72
2023/01/03 14:48:58;;;;;;;1.10;0.73;;;;;;;;;;5025900;28;20067;-73
2023/01/03 14:51:25;;;;;;;0.60;0.50;;;;;;;;;;5023982;28;20033;-73
2023/01/03 14:53:51;;;;;;;1.42;0.68;;;;;;;;;;5022858;28;20396;-72
2023/01/03 14:56:22;;;;;;;0.98;0.60;;;;;;;;;;5026597;28;20105;-72
2023/01/03 14:58:48;;;;;;;0.70;0.70;;;;;;;;;;5023887;28;20104;-72
2023/01/03 15:01:14;;;;;;;0.73;0.70;;;;;;;;;;5032728;28;20026;-72
2023/01/03 15:03:42;;;;;;;0.60;0.60;;;;;;;;;;5027746;28;20128;-72
2023/01/03 15:06:16;;;;;;;1.23;0.80;;;;;;;;;;5024584;28;20353;-72
2023/01/03 15:08:43;;;;;;;0.70;0.70;;;;;;;;;;5027254;28;20017;-73
2023/01/03 15:11:09;;;;;;;1.35;0.95;;;;;;;;;;5028722;28;20109;-73
2023/01/03 15:13:37;;;;;;;0.50;0.50;;;;;;;;;;5026071;28;20037;-74
2023/01/03 15:16:17;;;;;;;2.28;0.60;;;;;;;;;;5020164;28;20021;-74
2023/01/03 15:18:46;;;;;;;0.70;0.68;;;;;;;;;;5025015;28;20079;-73
2023/01/03 15:21:16;;;;;;;0.65;0.60;;;;;;;;;;5026817;28;20392;-73
2023/01/03 15:23:43;;;;;;;0.98;0.63;;;;;;;;;;5025397;28;20472;-74
2023/01/03 15:26:21;;;;;;;1.23;0.70;;;;;;;;;;5024353;28;20108;-73
2023/01/03 15:28:54;;;;;;;1.05;0.70;;;;;;;;;;5026412;28;20026;-73
2023/01/03 15:31:26;;;;;;;0.93;0.80;;;;;;;;;;5027896;28;20061;-73
2023/01/03 15:33:59;;;;;;;2.28;0.73;;;;;;;;;;5028805;28;20088;-74
2023/01/03 15:36:27;;;;;;;0.80;0.73;;;;;;;;;;5026870;28;20025;-73
2023/01/03 15:38:53;;;;;;;0.82;0.80;;;;;;;;;;5027037;28;20464;-73
2023/01/03 15:44:08;;;;;;;0.75;0.65;;;;;;;;;;5026771;28;20064;-73
2023/01/03 15:46:34;;;;;;;0.60;0.55;;;;;;;;;;5025082;28;20029;-73
2023/01/03 15:49:00;;;;;;;0.63;0.55;;;;;;;;;;5026765;28;20057;-73
2023/01/03 15:51:26;;;;;;;1.85;0.73;;;;;;;;;;5025625;28;20037;-74
2023/01/03 15:53:52;;;;;;;1.48;0.70;;;;;;;;;;5025855;28;21875;-73
2023/01/03 15:56:20;;;;;;;0.98;0.90;;;;;;;;;;5028385;28;20022;-74
2023/01/03 15:58:47;;;;;;;0.57;0.57;;;;;;;;;;5025343;28;20641;-73
2023/01/03 16:01:13;;;;;;;0.77;0.65;;;;;;;;;;5022999;28;20033;-73
2023/01/03 16:03:39;;;;;;;0.68;0.60;;;;;;;;;;5026928;28;20022;-73
2023/01/03 16:06:05;;;;;;;1.52;0.88;;;;;;;;;;5026260;28;20021;-73
2023/01/03 16:08:32;;;;;;;1.30;0.80;;;;;;;;;;5043007;28;20472;-73